KPVD

Theodore Francis Green State Airport

Airport
ICAO code
KPVD
Summary
ICAO Region
NAM
ICAO Territory
Location

Providence/Warwick, Rhode Island,

Serving
Providence
Coordinates
41° 43' 29" N , 71° 25' 31" W
KCC
Airport WX
Cumulonimbus
Metar
Observation
KPVD 270251Z 27011KT 10SM SCT060 04/M05 A2978 RMK AO2 SLP084 T00391050 51032
Station
Providence, Theodore Francis Green State Airport
Date/Time
2023-01-27 02:51:00
Wind direction
270°
Wind speed
11 kts
Lowest cloud amount
scattered clouds
Temperature
3.9°C
Dew point
-5°C
Humidity
52%
Weather condition
n/a

Description

The main airport serving Rhode Island is at Providence and is also known as Theodore Francis Green Memorial State Airport.

Climatology

Humid “subtropical”/Continental climate (Köppen climate classification Cfa/Dfa) - characterized by hot, humid summers and cool/cold winters. Significant amounts of precipitation occur in all seasons in most areas. Winter rainfall (and snowfall) is associated with large storms that the westerlies steer from west to east. Most summer rainfall occurs during thunderstorms.

Runways

Designator Length Width Surface Rops
16/34 1853 46 ASP Yes/Yes
5/23 2184 46 ASP Yes/Yes

Airport map

Aerial View

SKYbrary Partners:

Safety knowledge contributed by: